Aérodrome :
LOGIN :

S'inscrire | Disclaimer

   EN    FR    IT 

 










Légende :    VFR   VFR Marginal   IFR   IFR Intensif   IFR Très Intensif
Visi : 
Plafond : 
>= 8 km
>= 3000ft
5 à 8 km
1000 à 3000 ft
1500m à 5 km
500 à 1000 ft
800 à 1500m
200 à 500 ft
< 800m
< 200 ft
Symboles :   Orages  Brouillard  Fortes neiges  Fortes précipitations  Vent > 20 kt
SIGMETs :   Divers  Orages  Givrage  Turbulence  Onde Orograph.  Cendres Volcan.







- Altitude de l'aérodrome : 1247 ft
- Code IATA : PRG


LKPR - Praha Ruzyne

DERNIER METAR :
  • 231635Z 28006KT 9999 -RA FEW011 OVC016 08/07 Q1018 RMK REG QNH 1011

METARs EXPIRÉS :
  • 231626Z 27007KT 6000 RA FEW010 OVC018 08/07 Q1018 RMK REG QNH 1011
  • 231606Z 27007KT 8000 -RA OVC020 09/07 Q1018 RMK REG QNH 1011
  • 231543Z 28005KT 9999 -DZ FEW010 BKN018 08/07 Q1018 RMK REG QNH 1011
  • 231530Z 27006KT 9000 -RA OVC018 09/07 Q1018 NOSIG
  • 231500Z 30009KT 9999 -RA FEW018 OVC028 09/06 Q1017 NOSIG
  • 231430Z 31009KT 9999 FEW022 BKN032 10/06 Q1017 NOSIG
  • 231400Z 31008KT 9999 -RA FEW018 BKN025 09/07 Q1017 NOSIG
  • 231343Z 31008KT 9999 -RA BKN022 10/06 Q1017 RMK REG QNH 1010

TAF TAF LKPR
Valide du 23 à 12h jusqu'au 24 à 18h UTC


231100Z 2312/2418 28010KT 9999 BKN036
TEMPO 2312/2410 -RA BKN014
TEMPO 2410/2418 SCT040
Pas de NOTAMs connus pour ce terrain.



MET'MAP, la Météo Aéronautique d'un coup d'oeil ! - Copyright ORBIFLY Décembre 2007 - Disclaimer

ORBIFLY MET'MAP TEAM :

Programmation & Développement : Alexandra Zaïnal
Conception & Développement : Baudouin d'Aumeries
Co-Programmation & Développement : Marc-Olivier Méhu
Soutien technique & logistique : Manuel Goepfert

Contact : metmap@orbifly.com




SOURCES & CREDITS :

   NOAA